sensor_id;sensor_type;location;lat;lon;timestamp;pressure;altitude;pressure_sealevel;temperature;humidity
24486;BME280;13449;49.374;8.584;2023-08-06T00:00:05;99666.41;;;14.67;100.00
24486;BME280;13449;49.374;8.584;2023-08-06T00:02:31;99662.06;;;14.66;100.00
24486;BME280;13449;49.374;8.584;2023-08-06T00:04:58;99668.72;;;14.71;100.00
24486;BME280;13449;49.374;8.584;2023-08-06T00:07:29;99660.94;;;14.69;100.00
24486;BME280;13449;49.374;8.584;2023-08-06T00:09:58;99665.41;;;14.68;100.00
24486;BME280;13449;49.374;8.584;2023-08-06T00:12:25;99668.72;;;14.71;100.00
24486;BME280;13449;49.374;8.584;2023-08-06T00:14:54;99657.09;;;14.63;100.00
24486;BME280;13449;49.374;8.584;2023-08-06T00:17:21;99664.88;;;14.65;100.00
24486;BME280;13449;49.374;8.584;2023-08-06T00:19:50;99658.44;;;14.67;100.00
24486;BME280;13449;49.374;8.584;2023-08-06T00:22:16;99651.16;;;14.70;100.00
24486;BME280;13449;49.374;8.584;2023-08-06T00:24:45;99654.28;;;14.73;100.00
24486;BME280;13449;49.374;8.584;2023-08-06T00:27:16;99644.53;;;14.74;100.00
24486;BME280;13449;49.374;8.584;2023-08-06T00:29:42;99641.03;;;14.73;100.00
24486;BME280;13449;49.374;8.584;2023-08-06T00:32:12;99636.91;;;14.71;100.00
24486;BME280;13449;49.374;8.584;2023-08-06T00:34:38;99635.56;;;14.75;100.00
24486;BME280;13449;49.374;8.584;2023-08-06T00:37:05;99632.91;;;14.75;100.00
24486;BME280;13449;49.374;8.584;2023-08-06T00:39:33;99627.78;;;14.81;100.00
24486;BME280;13449;49.374;8.584;2023-08-06T00:41:59;99623.00;;;14.85;100.00
24486;BME280;13449;49.374;8.584;2023-08-06T00:44:26;99625.47;;;14.86;100.00
24486;BME280;13449;49.374;8.584;2023-08-06T00:46:52;99621.34;;;14.84;100.00
24486;BME280;13449;49.374;8.584;2023-08-06T00:49:23;99618.00;;;14.82;100.00
24486;BME280;13449;49.374;8.584;2023-08-06T00:51:52;99614.53;;;14.81;100.00
24486;BME280;13449;49.374;8.584;2023-08-06T00:54:20;99613.03;;;14.79;100.00
24486;BME280;13449;49.374;8.584;2023-08-06T00:56:46;99615.03;;;14.77;100.00
24486;BME280;13449;49.374;8.584;2023-08-06T00:59:13;99608.06;;;14.76;100.00
24486;BME280;13449;49.374;8.584;2023-08-06T01:01:40;99609.38;;;14.80;100.00
24486;BME280;13449;49.374;8.584;2023-08-06T01:04:07;99611.38;;;14.78;100.00
24486;BME280;13449;49.374;8.584;2023-08-06T01:09:33;99600.13;;;14.84;100.00
24486;BME280;13449;49.374;8.584;2023-08-06T01:12:31;99597.97;;;14.79;100.00
24486;BME280;13449;49.374;8.584;2023-08-06T01:15:10;99593.31;;;14.73;100.00
24486;BME280;13449;49.374;8.584;2023-08-06T01:17:38;99594.50;;;14.71;100.00
24486;BME280;13449;49.374;8.584;2023-08-06T01:20:06;99588.53;;;14.68;99.93
24486;BME280;13449;49.374;8.584;2023-08-06T01:22:33;99582.53;;;14.66;100.00
24486;BME280;13449;49.374;8.584;2023-08-06T01:25:02;99582.69;;;14.65;100.00
24486;BME280;13449;49.374;8.584;2023-08-06T01:27:46;99575.75;;;14.72;100.00
24486;BME280;13449;49.374;8.584;2023-08-06T01:30:20;99573.28;;;14.71;99.98
24486;BME280;13449;49.374;8.584;2023-08-06T01:32:53;99576.75;;;14.71;99.96
24486;BME280;13449;49.374;8.584;2023-08-06T01:35:21;99566.31;;;14.70;99.87
24486;BME280;13449;49.374;8.584;2023-08-06T01:37:51;99557.53;;;14.69;99.98
24486;BME280;13449;49.374;8.584;2023-08-06T01:40:18;99553.06;;;14.61;99.76
24486;BME280;13449;49.374;8.584;2023-08-06T01:42:44;99554.56;;;14.56;99.95
24486;BME280;13449;49.374;8.584;2023-08-06T01:45:11;99550.72;;;14.50;99.70
24486;BME280;13449;49.374;8.584;2023-08-06T01:47:37;99549.72;;;14.43;99.58
24486;BME280;13449;49.374;8.584;2023-08-06T01:50:04;99547.03;;;14.35;99.20
24486;BME280;13449;49.374;8.584;2023-08-06T01:52:31;99549.03;;;14.33;99.25
24486;BME280;13449;49.374;8.584;2023-08-06T01:54:57;99547.38;;;14.32;99.05
24486;BME280;13449;49.374;8.584;2023-08-06T01:57:27;99548.38;;;14.31;99.11
24486;BME280;13449;49.374;8.584;2023-08-06T01:59:54;99548.84;;;14.34;99.12
24486;BME280;13449;49.374;8.584;2023-08-06T02:02:20;99541.06;;;14.33;99.15
24486;BME280;13449;49.374;8.584;2023-08-06T02:04:47;99549.56;;;14.36;99.13
24486;BME280;13449;49.374;8.584;2023-08-06T02:07:16;99552.03;;;14.38;99.17
24486;BME280;13449;49.374;8.584;2023-08-06T02:09:46;99552.03;;;14.38;99.00
24486;BME280;13449;49.374;8.584;2023-08-06T02:12:13;99543.91;;;14.39;99.17
24486;BME280;13449;49.374;8.584;2023-08-06T02:14:39;99550.72;;;14.42;99.20
24486;BME280;13449;49.374;8.584;2023-08-06T02:17:08;99548.38;;;14.39;99.32
24486;BME280;13449;49.374;8.584;2023-08-06T02:19:35;99548.38;;;14.39;99.30
24486;BME280;13449;49.374;8.584;2023-08-06T02:22:02;99546.72;;;14.38;99.10
24486;BME280;13449;49.374;8.584;2023-08-06T02:24:29;99542.25;;;14.38;99.25
24486;BME280;13449;49.374;8.584;2023-08-06T02:26:58;99541.44;;;14.38;99.11
24486;BME280;13449;49.374;8.584;2023-08-06T02:29:27;99534.47;;;14.37;99.03
24486;BME280;13449;49.374;8.584;2023-08-06T02:31:54;99530.84;;;14.38;99.05
24486;BME280;13449;49.374;8.584;2023-08-06T02:34:21;99539.44;;;14.40;99.14
24486;BME280;13449;49.374;8.584;2023-08-06T02:36:48;99531.66;;;14.38;98.98
24486;BME280;13449;49.374;8.584;2023-08-06T02:39:14;99538.63;;;14.39;99.07
24486;BME280;13449;49.374;8.584;2023-08-06T02:41:41;99533.81;;;14.43;99.00
24486;BME280;13449;49.374;8.584;2023-08-06T02:44:07;99533.81;;;14.43;98.86
24486;BME280;13449;49.374;8.584;2023-08-06T02:46:34;99530.19;;;14.44;98.71
24486;BME280;13449;49.374;8.584;2023-08-06T02:49:03;99537.00;;;14.47;98.75
24486;BME280;13449;49.374;8.584;2023-08-06T02:51:29;99536.81;;;14.48;98.59
24486;BME280;13449;49.374;8.584;2023-08-06T02:53:56;99542.78;;;14.50;98.46
24486;BME280;13449;49.374;8.584;2023-08-06T02:56:22;99532.88;;;14.52;98.10
24486;BME280;13449;49.374;8.584;2023-08-06T02:58:49;99533.34;;;14.56;97.94
24486;BME280;13449;49.374;8.584;2023-08-06T03:01:15;99531.53;;;14.56;97.58
24486;BME280;13449;49.374;8.584;2023-08-06T03:03:42;99524.09;;;14.52;97.14
24486;BME280;13449;49.374;8.584;2023-08-06T03:06:08;99527.88;;;14.49;96.87
24486;BME280;13449;49.374;8.584;2023-08-06T03:08:35;99522.09;;;14.46;96.64
24486;BME280;13449;49.374;8.584;2023-08-06T03:11:01;99516.94;;;14.44;96.45
24486;BME280;13449;49.374;8.584;2023-08-06T03:13:28;99517.44;;;14.39;96.20
24486;BME280;13449;49.374;8.584;2023-08-06T03:15:56;99507.16;;;14.36;96.10
24486;BME280;13449;49.374;8.584;2023-08-06T03:18:23;99511.28;;;14.39;95.92
24486;BME280;13449;49.374;8.584;2023-08-06T03:20:50;99510.97;;;14.42;96.06
24486;BME280;13449;49.374;8.584;2023-08-06T03:23:18;99511.47;;;14.46;95.83
24486;BME280;13449;49.374;8.584;2023-08-06T03:25:47;99509.66;;;14.46;95.74
24486;BME280;13449;49.374;8.584;2023-08-06T03:28:14;99506.66;;;14.49;95.67
24486;BME280;13449;49.374;8.584;2023-08-06T03:30:40;99509.97;;;14.51;95.89
24486;BME280;13449;49.374;8.584;2023-08-06T03:33:07;99503.03;;;14.50;96.18
24486;BME280;13449;49.374;8.584;2023-08-06T03:35:33;99504.69;;;14.51;96.28
24486;BME280;13449;49.374;8.584;2023-08-06T03:38:00;99506.38;;;14.52;96.16
24486;BME280;13449;49.374;8.584;2023-08-06T03:40:26;99500.25;;;14.52;96.30
24486;BME280;13449;49.374;8.584;2023-08-06T03:42:53;99497.41;;;14.53;96.13
24486;BME280;13449;49.374;8.584;2023-08-06T03:45:22;99504.38;;;14.54;96.10
24486;BME280;13449;49.374;8.584;2023-08-06T03:47:49;99510.34;;;14.56;96.07
24486;BME280;13449;49.374;8.584;2023-08-06T03:50:15;99505.69;;;14.58;95.66
24486;BME280;13449;49.374;8.584;2023-08-06T03:52:42;99513.13;;;14.63;95.96
24486;BME280;13449;49.374;8.584;2023-08-06T03:55:08;99512.97;;;14.64;95.83
24486;BME280;13449;49.374;8.584;2023-08-06T03:57:35;99506.19;;;14.62;95.46
24486;BME280;13449;49.374;8.584;2023-08-06T04:00:05;99503.69;;;14.60;95.10
24486;BME280;13449;49.374;8.584;2023-08-06T04:06:19;99507.00;;;14.62;95.08
24486;BME280;13449;49.374;8.584;2023-08-06T04:08:48;99506.66;;;14.65;95.17
24486;BME280;13449;49.374;8.584;2023-08-06T04:11:15;99510.66;;;14.61;94.59
24486;BME280;13449;49.374;8.584;2023-08-06T04:13:44;99502.03;;;14.59;94.48
24486;BME280;13449;49.374;8.584;2023-08-06T04:16:11;99498.75;;;14.57;94.24
24486;BME280;13449;49.374;8.584;2023-08-06T04:18:41;99504.03;;;14.57;94.19
24486;BME280;13449;49.374;8.584;2023-08-06T04:21:07;99503.38;;;14.55;93.75
24486;BME280;13449;49.374;8.584;2023-08-06T04:23:34;99498.25;;;14.54;93.82
24486;BME280;13449;49.374;8.584;2023-08-06T04:26:00;99493.25;;;14.51;93.25
24486;BME280;13449;49.374;8.584;2023-08-06T04:28:27;99501.91;;;14.53;93.54
24486;BME280;13449;49.374;8.584;2023-08-06T04:34:40;99505.69;;;14.50;93.31
24486;BME280;13449;49.374;8.584;2023-08-06T04:37:06;99502.19;;;14.50;93.31
24486;BME280;13449;49.374;8.584;2023-08-06T04:39:33;99504.84;;;14.50;93.34
24486;BME280;13449;49.374;8.584;2023-08-06T04:45:50;99512.31;;;14.46;93.37
24486;BME280;13449;49.374;8.584;2023-08-06T04:48:17;99510.31;;;14.48;93.59
24486;BME280;13449;49.374;8.584;2023-08-06T04:50:47;99506.00;;;14.47;93.11
24486;BME280;13449;49.374;8.584;2023-08-06T04:53:14;99511.31;;;14.47;93.16
24486;BME280;13449;49.374;8.584;2023-08-06T04:55:43;99511.47;;;14.46;93.13
24486;BME280;13449;49.374;8.584;2023-08-06T04:58:10;99518.59;;;14.45;92.81
24486;BME280;13449;49.374;8.584;2023-08-06T05:00:40;99513.47;;;14.44;92.90
24486;BME280;13449;49.374;8.584;2023-08-06T05:03:06;99505.66;;;14.42;92.38
24486;BME280;13449;49.374;8.584;2023-08-06T05:05:33;99511.97;;;14.41;92.39
24486;BME280;13449;49.374;8.584;2023-08-06T05:08:00;99510.97;;;14.42;92.23
24486;BME280;13449;49.374;8.584;2023-08-06T05:10:27;99512.94;;;14.40;92.25
24486;BME280;13449;49.374;8.584;2023-08-06T05:12:59;99517.59;;;14.38;92.82
24486;BME280;13449;49.374;8.584;2023-08-06T05:15:31;99518.88;;;14.34;93.41
24486;BME280;13449;49.374;8.584;2023-08-06T05:17:57;99510.28;;;14.32;94.20
24486;BME280;13449;49.374;8.584;2023-08-06T05:20:24;99513.44;;;14.27;94.44
24486;BME280;13449;49.374;8.584;2023-08-06T05:22:53;99519.41;;;14.21;95.22
24486;BME280;13449;49.374;8.584;2023-08-06T05:25:20;99524.16;;;14.18;95.57
24486;BME280;13449;49.374;8.584;2023-08-06T05:27:46;99519.22;;;14.15;96.37
24486;BME280;13449;49.374;8.584;2023-08-06T05:30:13;99527.16;;;14.06;96.74
24486;BME280;13449;49.374;8.584;2023-08-06T05:32:39;99519.38;;;14.05;97.04
24486;BME280;13449;49.374;8.584;2023-08-06T05:35:08;99522.47;;;14.00;97.74
24486;BME280;13449;49.374;8.584;2023-08-06T05:37:37;99518.84;;;14.01;97.86
24486;BME280;13449;49.374;8.584;2023-08-06T05:40:04;99516.69;;;13.97;98.30
24486;BME280;13449;49.374;8.584;2023-08-06T05:42:30;99521.31;;;13.95;98.33
24486;BME280;13449;49.374;8.584;2023-08-06T05:44:59;99527.13;;;13.90;98.27
24486;BME280;13449;49.374;8.584;2023-08-06T05:47:26;99527.13;;;13.90;98.76
24486;BME280;13449;49.374;8.584;2023-08-06T05:49:53;99528.78;;;13.91;98.96
24486;BME280;13449;49.374;8.584;2023-08-06T05:52:19;99530.44;;;13.92;99.10
24486;BME280;13449;49.374;8.584;2023-08-06T05:54:46;99532.41;;;13.90;99.31
24486;BME280;13449;49.374;8.584;2023-08-06T05:57:12;99536.72;;;13.91;99.44
24486;BME280;13449;49.374;8.584;2023-08-06T05:59:40;99536.34;;;13.86;99.35
24486;BME280;13449;49.374;8.584;2023-08-06T06:02:06;99544.94;;;13.88;99.41
24486;BME280;13449;49.374;8.584;2023-08-06T06:04:33;99542.63;;;13.85;99.70
24486;BME280;13449;49.374;8.584;2023-08-06T06:07:00;99530.56;;;13.83;99.67
24486;BME280;13449;49.374;8.584;2023-08-06T06:09:26;99538.00;;;13.87;99.59
24486;BME280;13449;49.374;8.584;2023-08-06T06:11:53;99539.97;;;13.85;100.00
24486;BME280;13449;49.374;8.584;2023-08-06T06:14:20;99535.88;;;13.91;99.87
24486;BME280;13449;49.374;8.584;2023-08-06T06:16:46;99536.06;;;13.89;100.00
24486;BME280;13449;49.374;8.584;2023-08-06T06:19:13;99546.63;;;13.89;100.00
24486;BME280;13449;49.374;8.584;2023-08-06T06:21:41;99549.28;;;13.89;100.00
24486;BME280;13449;49.374;8.584;2023-08-06T06:24:08;99541.84;;;13.93;100.00
24486;BME280;13449;49.374;8.584;2023-08-06T06:26:34;99544.50;;;13.93;100.00
24486;BME280;13449;49.374;8.584;2023-08-06T06:29:05;99547.97;;;13.93;100.00
24486;BME280;13449;49.374;8.584;2023-08-06T06:31:33;99544.94;;;13.88;100.00
24486;BME280;13449;49.374;8.584;2023-08-06T06:34:00;99553.44;;;13.92;100.00
24486;BME280;13449;49.374;8.584;2023-08-06T06:36:27;99550.44;;;13.95;100.00
24486;BME280;13449;49.374;8.584;2023-08-06T06:38:53;99560.03;;;13.96;100.00
24486;BME280;13449;49.374;8.584;2023-08-06T06:41:20;99550.94;;;13.98;100.00
24486;BME280;13449;49.374;8.584;2023-08-06T06:43:46;99559.75;;;14.07;100.00
24486;BME280;13449;49.374;8.584;2023-08-06T06:46:13;99559.75;;;14.07;100.00
24486;BME280;13449;49.374;8.584;2023-08-06T06:48:40;99555.28;;;14.07;100.00
24486;BME280;13449;49.374;8.584;2023-08-06T06:51:09;99559.75;;;14.15;100.00
24486;BME280;13449;49.374;8.584;2023-08-06T06:53:38;99556.28;;;14.15;100.00
24486;BME280;13449;49.374;8.584;2023-08-06T06:56:09;99558.09;;;14.14;100.00
24486;BME280;13449;49.374;8.584;2023-08-06T06:58:36;99553.66;;;14.23;100.00
24486;BME280;13449;49.374;8.584;2023-08-06T07:01:04;99551.69;;;14.25;100.00
24486;BME280;13449;49.374;8.584;2023-08-06T07:03:31;99553.34;;;14.26;100.00
24486;BME280;13449;49.374;8.584;2023-08-06T07:05:58;99547.22;;;14.25;100.00
24486;BME280;13449;49.374;8.584;2023-08-06T07:08:30;99546.38;;;14.25;100.00
24486;BME280;13449;49.374;8.584;2023-08-06T07:11:03;99538.75;;;14.30;100.00
24486;BME280;13449;49.374;8.584;2023-08-06T07:13:33;99544.91;;;14.38;100.00
24486;BME280;13449;49.374;8.584;2023-08-06T07:16:00;99539.63;;;14.47;100.00
24486;BME280;13449;49.374;8.584;2023-08-06T07:18:26;99536.31;;;14.45;100.00
24486;BME280;13449;49.374;8.584;2023-08-06T07:20:54;99543.78;;;14.49;100.00
24486;BME280;13449;49.374;8.584;2023-08-06T07:23:24;99542.78;;;14.58;99.90
24486;BME280;13449;49.374;8.584;2023-08-06T07:25:51;99544.94;;;14.63;99.99
24486;BME280;13449;49.374;8.584;2023-08-06T07:28:18;99544.28;;;14.61;99.55
24486;BME280;13449;49.374;8.584;2023-08-06T07:30:45;99536.16;;;14.62;99.58
24486;BME280;13449;49.374;8.584;2023-08-06T07:33:12;99550.72;;;14.66;99.28
24486;BME280;13449;49.374;8.584;2023-08-06T07:35:39;99550.44;;;14.70;99.07
24486;BME280;13449;49.374;8.584;2023-08-06T07:38:05;99548.91;;;14.75;99.13
24486;BME280;13449;49.374;8.584;2023-08-06T07:40:36;99558.34;;;14.78;99.04
24486;BME280;13449;49.374;8.584;2023-08-06T07:43:04;99558.34;;;14.78;98.68
24486;BME280;13449;49.374;8.584;2023-08-06T07:45:35;99549.09;;;14.74;98.53
24486;BME280;13449;49.374;8.584;2023-08-06T07:48:05;99556.19;;;14.65;98.39
24486;BME280;13449;49.374;8.584;2023-08-06T07:50:32;99545.09;;;14.61;98.31
24486;BME280;13449;49.374;8.584;2023-08-06T07:52:58;99549.06;;;14.65;98.43
24486;BME280;13449;49.374;8.584;2023-08-06T07:55:25;99548.78;;;14.68;98.28
24486;BME280;13449;49.374;8.584;2023-08-06T07:57:52;99542.44;;;14.78;98.42
24486;BME280;13449;49.374;8.584;2023-08-06T08:00:18;99541.13;;;14.82;97.94
24486;BME280;13449;49.374;8.584;2023-08-06T08:02:45;99540.28;;;14.89;97.87
24486;BME280;13449;49.374;8.584;2023-08-06T08:05:15;99544.75;;;15.05;98.28
24486;BME280;13449;49.374;8.584;2023-08-06T08:07:42;99555.66;;;15.18;97.99
24486;BME280;13449;49.374;8.584;2023-08-06T08:10:08;99538.06;;;15.34;98.19
24486;BME280;13449;49.374;8.584;2023-08-06T08:12:35;99543.72;;;15.31;97.74
24486;BME280;13449;49.374;8.584;2023-08-06T08:15:02;99546.31;;;15.39;97.20
24486;BME280;13449;49.374;8.584;2023-08-06T08:17:29;99544.66;;;15.38;96.57
24486;BME280;13449;49.374;8.584;2023-08-06T08:19:56;99544.63;;;15.46;96.36
24486;BME280;13449;49.374;8.584;2023-08-06T08:22:24;99537.97;;;15.66;96.45
24486;BME280;13449;49.374;8.584;2023-08-06T08:24:51;99539.56;;;15.75;95.98
24486;BME280;13449;49.374;8.584;2023-08-06T08:27:17;99537.75;;;15.76;95.94
24486;BME280;13449;49.374;8.584;2023-08-06T08:29:44;99534.59;;;15.72;96.34
24486;BME280;13449;49.374;8.584;2023-08-06T08:32:10;99530.34;;;15.55;96.33
24486;BME280;13449;49.374;8.584;2023-08-06T08:34:37;99526.69;;;15.56;96.84
24486;BME280;13449;49.374;8.584;2023-08-06T08:37:03;99525.50;;;15.58;97.16
24486;BME280;13449;49.374;8.584;2023-08-06T08:39:32;99534.47;;;15.57;96.90
24486;BME280;13449;49.374;8.584;2023-08-06T08:41:59;99520.38;;;15.57;96.98
24486;BME280;13449;49.374;8.584;2023-08-06T08:44:25;99530.66;;;15.68;97.08
24486;BME280;13449;49.374;8.584;2023-08-06T08:46:54;99533.78;;;16.03;97.34
24486;BME280;13449;49.374;8.584;2023-08-06T08:49:23;99521.41;;;16.18;97.13
24486;BME280;13449;49.374;8.584;2023-08-06T08:51:52;99520.94;;;16.37;96.80
24486;BME280;13449;49.374;8.584;2023-08-06T08:54:23;99522.00;;;16.51;96.36
24486;BME280;13449;49.374;8.584;2023-08-06T08:56:49;99513.03;;;16.75;96.83
24486;BME280;13449;49.374;8.584;2023-08-06T08:59:16;99521.06;;;16.67;95.98
24486;BME280;13449;49.374;8.584;2023-08-06T09:01:43;99517.69;;;16.73;95.72
24486;BME280;13449;49.374;8.584;2023-08-06T09:04:12;99515.97;;;16.80;95.55
24486;BME280;13449;49.374;8.584;2023-08-06T09:06:39;99522.94;;;16.81;94.85
24486;BME280;13449;49.374;8.584;2023-08-06T09:09:12;99518.56;;;16.65;94.69
24486;BME280;13449;49.374;8.584;2023-08-06T09:11:44;99513.41;;;16.64;94.80
24486;BME280;13449;49.374;8.584;2023-08-06T09:14:14;99517.78;;;16.57;94.49
24486;BME280;13449;49.374;8.584;2023-08-06T09:16:41;99512.19;;;16.52;94.22
24486;BME280;13449;49.374;8.584;2023-08-06T09:19:11;99521.16;;;16.51;93.98
24486;BME280;13449;49.374;8.584;2023-08-06T09:21:46;99525.75;;;16.57;94.05
24486;BME280;13449;49.374;8.584;2023-08-06T09:24:17;99524.94;;;16.79;94.21
24486;BME280;13449;49.374;8.584;2023-08-06T09:26:46;99518.34;;;16.75;92.64
24486;BME280;13449;49.374;8.584;2023-08-06T09:29:12;99517.50;;;16.74;92.08
24486;BME280;13449;49.374;8.584;2023-08-06T09:31:42;99517.50;;;16.74;91.67
24486;BME280;13449;49.374;8.584;2023-08-06T09:34:20;99508.75;;;16.66;91.02
24486;BME280;13449;49.374;8.584;2023-08-06T09:36:51;99501.50;;;16.60;89.92
24486;BME280;13449;49.374;8.584;2023-08-06T09:39:19;99500.59;;;16.67;91.06
24486;BME280;13449;49.374;8.584;2023-08-06T09:41:47;99502.38;;;16.52;90.57
24486;BME280;13449;49.374;8.584;2023-08-06T09:44:20;99510.25;;;16.45;90.80
24486;BME280;13449;49.374;8.584;2023-08-06T09:46:55;99510.66;;;16.34;91.28
24486;BME280;13449;49.374;8.584;2023-08-06T09:49:47;99519.41;;;16.20;91.51
24486;BME280;13449;49.374;8.584;2023-08-06T09:52:15;99522.13;;;16.12;92.44
24486;BME280;13449;49.374;8.584;2023-08-06T09:54:44;99530.50;;;15.93;93.03
24486;BME280;13449;49.374;8.584;2023-08-06T09:57:17;99530.91;;;15.81;93.79
24486;BME280;13449;49.374;8.584;2023-08-06T09:59:44;99533.16;;;15.53;92.96
24486;BME280;13449;49.374;8.584;2023-08-06T10:02:16;99530.91;;;15.34;93.01
24486;BME280;13449;49.374;8.584;2023-08-06T10:04:44;99530.94;;;15.26;93.31
24486;BME280;13449;49.374;8.584;2023-08-06T10:07:21;99530.09;;;15.34;94.01
24486;BME280;13449;49.374;8.584;2023-08-06T10:09:49;99530.75;;;15.36;94.27
24486;BME280;13449;49.374;8.584;2023-08-06T10:12:16;99535.88;;;15.37;94.24
24486;BME280;13449;49.374;8.584;2023-08-06T10:14:47;99538.19;;;15.40;94.52
24486;BME280;13449;49.374;8.584;2023-08-06T10:17:16;99535.00;;;15.45;94.60
24486;BME280;13449;49.374;8.584;2023-08-06T10:19:44;99532.69;;;15.50;95.10
24486;BME280;13449;49.374;8.584;2023-08-06T10:22:13;99535.00;;;15.53;94.80
24486;BME280;13449;49.374;8.584;2023-08-06T10:24:49;99545.63;;;15.53;94.99
24486;BME280;13449;49.374;8.584;2023-08-06T10:27:29;99546.44;;;15.45;94.54
24486;BME280;13449;49.374;8.584;2023-08-06T10:33:02;99561.75;;;15.35;95.27
24486;BME280;13449;49.374;8.584;2023-08-06T10:38:08;99569.94;;;15.17;95.33
24486;BME280;13449;49.374;8.584;2023-08-06T10:45:53;99586.34;;;15.05;95.63
24486;BME280;13449;49.374;8.584;2023-08-06T10:51:03;99585.19;;;14.91;95.89
24486;BME280;13449;49.374;8.584;2023-08-06T10:53:31;99587.53;;;14.86;96.19
24486;BME280;13449;49.374;8.584;2023-08-06T10:56:11;99580.72;;;14.75;96.00
24486;BME280;13449;49.374;8.584;2023-08-06T10:58:38;99584.88;;;14.70;95.86
24486;BME280;13449;49.374;8.584;2023-08-06T11:01:04;99581.56;;;14.59;95.77
24486;BME280;13449;49.374;8.584;2023-08-06T11:03:33;99578.91;;;14.59;95.29
24486;BME280;13449;49.374;8.584;2023-08-06T11:06:00;99585.53;;;14.55;95.16
24486;BME280;13449;49.374;8.584;2023-08-06T11:08:28;99601.44;;;14.55;95.18
24486;BME280;13449;49.374;8.584;2023-08-06T11:10:55;99593.31;;;14.57;94.77
24486;BME280;13449;49.374;8.584;2023-08-06T11:13:33;99601.09;;;14.58;94.74
24486;BME280;13449;49.374;8.584;2023-08-06T11:16:02;99599.09;;;14.60;94.84
24486;BME280;13449;49.374;8.584;2023-08-06T11:18:29;99596.63;;;14.59;94.66
24486;BME280;13449;49.374;8.584;2023-08-06T11:20:58;99601.09;;;14.58;94.60
24486;BME280;13449;49.374;8.584;2023-08-06T11:23:30;99592.50;;;14.56;94.10
24486;BME280;13449;49.374;8.584;2023-08-06T11:25:57;99614.34;;;14.58;94.04
24486;BME280;13449;49.374;8.584;2023-08-06T11:28:24;99620.66;;;14.57;93.94
24486;BME280;13449;49.374;8.584;2023-08-06T11:30:52;99621.63;;;14.64;93.81
24486;BME280;13449;49.374;8.584;2023-08-06T11:33:27;99632.91;;;14.66;93.63
24486;BME280;13449;49.374;8.584;2023-08-06T11:35:55;99629.13;;;14.69;93.37
24486;BME280;13449;49.374;8.584;2023-08-06T11:38:25;99631.25;;;14.74;93.13
24486;BME280;13449;49.374;8.584;2023-08-06T11:40:53;99636.22;;;14.77;93.40
24486;BME280;13449;49.374;8.584;2023-08-06T11:43:20;99643.69;;;14.81;93.49
24486;BME280;13449;49.374;8.584;2023-08-06T11:45:49;99652.31;;;14.83;93.50
24486;BME280;13449;49.374;8.584;2023-08-06T11:48:20;99643.88;;;14.88;93.09
24486;BME280;13449;49.374;8.584;2023-08-06T11:50:46;99650.66;;;14.90;92.90
24486;BME280;13449;49.374;8.584;2023-08-06T11:53:14;99651.00;;;14.95;92.72
24486;BME280;13449;49.374;8.584;2023-08-06T11:55:41;99649.34;;;14.94;92.20
24486;BME280;13449;49.374;8.584;2023-08-06T11:58:09;99646.50;;;14.96;90.62
24486;BME280;13449;49.374;8.584;2023-08-06T12:00:39;99652.16;;;14.93;89.83
24486;BME280;13449;49.374;8.584;2023-08-06T12:03:09;99650.16;;;14.95;88.89
24486;BME280;13449;49.374;8.584;2023-08-06T12:05:38;99658.63;;;14.90;88.86
24486;BME280;13449;49.374;8.584;2023-08-06T12:08:05;99647.19;;;14.90;88.36
24486;BME280;13449;49.374;8.584;2023-08-06T12:10:32;99659.44;;;14.91;87.42
24486;BME280;13449;49.374;8.584;2023-08-06T12:13:00;99666.56;;;14.90;88.20
24486;BME280;13449;49.374;8.584;2023-08-06T12:15:26;99668.88;;;14.93;87.80
24486;BME280;13449;49.374;8.584;2023-08-06T12:18:01;99669.72;;;14.94;87.91
24486;BME280;13449;49.374;8.584;2023-08-06T12:20:29;99680.31;;;14.94;87.74
24486;BME280;13449;49.374;8.584;2023-08-06T12:22:55;99687.94;;;14.97;87.26
24486;BME280;13449;49.374;8.584;2023-08-06T12:25:22;99695.59;;;15.00;88.17
24486;BME280;13449;49.374;8.584;2023-08-06T12:27:49;99690.28;;;15.00;87.99
24486;BME280;13449;49.374;8.584;2023-08-06T12:30:16;99690.28;;;15.00;88.28
24486;BME280;13449;49.374;8.584;2023-08-06T12:32:42;99699.75;;;15.03;88.34
24486;BME280;13449;49.374;8.584;2023-08-06T12:35:09;99702.88;;;15.06;87.82
24486;BME280;13449;49.374;8.584;2023-08-06T12:37:38;99704.38;;;15.09;87.00
24486;BME280;13449;49.374;8.584;2023-08-06T12:40:06;99706.84;;;15.10;86.82
24486;BME280;13449;49.374;8.584;2023-08-06T12:42:53;99703.22;;;15.11;86.43
24486;BME280;13449;49.374;8.584;2023-08-06T12:45:19;99716.47;;;15.11;87.52
24486;BME280;13449;49.374;8.584;2023-08-06T12:47:48;99718.28;;;15.11;88.87
24486;BME280;13449;49.374;8.584;2023-08-06T12:50:16;99724.25;;;15.13;89.42
24486;BME280;13449;49.374;8.584;2023-08-06T12:52:43;99741.53;;;15.17;90.00
24486;BME280;13449;49.374;8.584;2023-08-06T12:55:10;99735.72;;;15.21;90.50
24486;BME280;13449;49.374;8.584;2023-08-06T12:57:36;99742.00;;;15.28;91.06
24486;BME280;13449;49.374;8.584;2023-08-06T13:00:22;99736.06;;;15.26;89.84
24486;BME280;13449;49.374;8.584;2023-08-06T13:02:49;99743.00;;;15.27;89.46
24486;BME280;13449;49.374;8.584;2023-08-06T13:05:15;99755.28;;;15.28;89.40
24486;BME280;13449;49.374;8.584;2023-08-06T13:07:44;99750.97;;;15.27;89.21
24486;BME280;13449;49.374;8.584;2023-08-06T13:10:11;99761.75;;;15.26;88.56
24486;BME280;13449;49.374;8.584;2023-08-06T13:12:37;99763.06;;;15.30;88.14
24486;BME280;13449;49.374;8.584;2023-08-06T13:15:04;99765.41;;;15.33;87.82
24486;BME280;13449;49.374;8.584;2023-08-06T13:17:31;99767.56;;;15.38;88.33
24486;BME280;13449;49.374;8.584;2023-08-06T13:19:57;99774.19;;;15.42;88.26
24486;BME280;13449;49.374;8.584;2023-08-06T13:22:24;99769.56;;;15.44;88.15
24486;BME280;13449;49.374;8.584;2023-08-06T13:24:50;99775.53;;;15.46;88.03
24486;BME280;13449;49.374;8.584;2023-08-06T13:27:17;99772.72;;;15.47;87.63
24486;BME280;13449;49.374;8.584;2023-08-06T13:29:43;99765.91;;;15.45;86.42